sensor_id;sensor_type;location;lat;lon;timestamp;temperature;humidity
3350;DHT22;1688;51.000;13.684;2022-10-31T00:01:27;20.10;90.50
3350;DHT22;1688;51.000;13.684;2022-10-31T00:03:54;20.10;90.70
3350;DHT22;1688;51.000;13.684;2022-10-31T00:06:21;20.10;90.50
3350;DHT22;1688;51.000;13.684;2022-10-31T00:08:59;20.10;90.40
3350;DHT22;1688;51.000;13.684;2022-10-31T00:11:25;20.10;90.40
3350;DHT22;1688;51.000;13.684;2022-10-31T00:13:51;20.10;90.50
3350;DHT22;1688;51.000;13.684;2022-10-31T00:16:22;20.10;90.60
3350;DHT22;1688;51.000;13.684;2022-10-31T00:18:57;20.00;90.50
3350;DHT22;1688;51.000;13.684;2022-10-31T00:21:24;20.10;90.60
3350;DHT22;1688;51.000;13.684;2022-10-31T00:23:51;20.00;90.70
3350;DHT22;1688;51.000;13.684;2022-10-31T00:26:17;20.00;90.70
3350;DHT22;1688;51.000;13.684;2022-10-31T00:28:44;20.10;90.80
3350;DHT22;1688;51.000;13.684;2022-10-31T00:31:11;20.00;90.80
3350;DHT22;1688;51.000;13.684;2022-10-31T00:33:38;20.00;90.70
3350;DHT22;1688;51.000;13.684;2022-10-31T00:36:05;20.00;90.90
3350;DHT22;1688;51.000;13.684;2022-10-31T00:38:31;20.00;90.70
3350;DHT22;1688;51.000;13.684;2022-10-31T00:40:57;19.90;91.20
3350;DHT22;1688;51.000;13.684;2022-10-31T00:43:23;19.90;91.00
3350;DHT22;1688;51.000;13.684;2022-10-31T00:45:48;20.00;91.10
3350;DHT22;1688;51.000;13.684;2022-10-31T00:48:14;19.90;91.00
3350;DHT22;1688;51.000;13.684;2022-10-31T00:50:40;19.90;91.10
3350;DHT22;1688;51.000;13.684;2022-10-31T00:53:06;19.80;91.10
3350;DHT22;1688;51.000;13.684;2022-10-31T00:55:32;19.90;91.20
3350;DHT22;1688;51.000;13.684;2022-10-31T00:57:58;19.80;91.10
3350;DHT22;1688;51.000;13.684;2022-10-31T01:00:24;19.80;91.20
3350;DHT22;1688;51.000;13.684;2022-10-31T01:02:50;19.80;91.30
3350;DHT22;1688;51.000;13.684;2022-10-31T01:05:16;19.80;91.20
3350;DHT22;1688;51.000;13.684;2022-10-31T01:07:42;19.80;91.40
3350;DHT22;1688;51.000;13.684;2022-10-31T01:10:09;19.70;91.50
3350;DHT22;1688;51.000;13.684;2022-10-31T01:12:43;19.70;91.50
3350;DHT22;1688;51.000;13.684;2022-10-31T01:15:11;19.80;91.70
3350;DHT22;1688;51.000;13.684;2022-10-31T01:17:37;19.70;91.60
3350;DHT22;1688;51.000;13.684;2022-10-31T01:20:04;19.70;91.70
3350;DHT22;1688;51.000;13.684;2022-10-31T01:22:31;19.70;91.70
3350;DHT22;1688;51.000;13.684;2022-10-31T01:24:57;19.70;91.90
3350;DHT22;1688;51.000;13.684;2022-10-31T01:27:22;19.70;91.80
3350;DHT22;1688;51.000;13.684;2022-10-31T01:29:48;19.70;91.80
3350;DHT22;1688;51.000;13.684;2022-10-31T01:32:14;19.70;91.80
3350;DHT22;1688;51.000;13.684;2022-10-31T01:34:40;19.70;91.80
3350;DHT22;1688;51.000;13.684;2022-10-31T01:37:12;19.70;91.90
3350;DHT22;1688;51.000;13.684;2022-10-31T01:39:37;19.70;91.80
3350;DHT22;1688;51.000;13.684;2022-10-31T01:42:03;19.70;91.70
3350;DHT22;1688;51.000;13.684;2022-10-31T01:47:14;19.70;91.90
3350;DHT22;1688;51.000;13.684;2022-10-31T01:49:56;19.70;91.90
3350;DHT22;1688;51.000;13.684;2022-10-31T01:52:28;19.70;91.80
3350;DHT22;1688;51.000;13.684;2022-10-31T01:55:07;19.70;91.70
3350;DHT22;1688;51.000;13.684;2022-10-31T01:57:36;19.70;91.70
3350;DHT22;1688;51.000;13.684;2022-10-31T02:00:07;19.70;91.80
3350;DHT22;1688;51.000;13.684;2022-10-31T02:02:33;19.70;91.60
3350;DHT22;1688;51.000;13.684;2022-10-31T02:05:02;19.60;91.70
3350;DHT22;1688;51.000;13.684;2022-10-31T02:07:34;19.60;92.00
3350;DHT22;1688;51.000;13.684;2022-10-31T02:10:02;19.60;92.20
3350;DHT22;1688;51.000;13.684;2022-10-31T02:12:30;19.60;92.20
3350;DHT22;1688;51.000;13.684;2022-10-31T02:14:57;19.60;92.20
3350;DHT22;1688;51.000;13.684;2022-10-31T02:17:23;19.60;92.20
3350;DHT22;1688;51.000;13.684;2022-10-31T02:20:21;19.60;92.00
3350;DHT22;1688;51.000;13.684;2022-10-31T02:26:03;19.60;92.40
3350;DHT22;1688;51.000;13.684;2022-10-31T02:28:52;19.60;92.60
3350;DHT22;1688;51.000;13.684;2022-10-31T02:31:40;19.50;92.70
3350;DHT22;1688;51.000;13.684;2022-10-31T02:34:17;19.60;93.10
3350;DHT22;1688;51.000;13.684;2022-10-31T02:37:12;19.60;92.80
3350;DHT22;1688;51.000;13.684;2022-10-31T02:42:19;19.70;92.60
3350;DHT22;1688;51.000;13.684;2022-10-31T02:44:56;19.70;92.80
3350;DHT22;1688;51.000;13.684;2022-10-31T02:47:33;19.70;92.90
3350;DHT22;1688;51.000;13.684;2022-10-31T02:50:02;19.70;92.90
3350;DHT22;1688;51.000;13.684;2022-10-31T02:52:32;19.70;92.80
3350;DHT22;1688;51.000;13.684;2022-10-31T02:55:08;19.70;92.80
3350;DHT22;1688;51.000;13.684;2022-10-31T02:57:36;19.70;92.80
3350;DHT22;1688;51.000;13.684;2022-10-31T03:00:06;19.70;92.70
3350;DHT22;1688;51.000;13.684;2022-10-31T03:10:55;19.70;92.90
3350;DHT22;1688;51.000;13.684;2022-10-31T03:16:21;19.70;93.10
3350;DHT22;1688;51.000;13.684;2022-10-31T03:18:59;19.70;93.30
3350;DHT22;1688;51.000;13.684;2022-10-31T03:21:49;19.70;93.20
3350;DHT22;1688;51.000;13.684;2022-10-31T03:24:16;19.60;93.30
3350;DHT22;1688;51.000;13.684;2022-10-31T03:26:53;19.60;93.40
3350;DHT22;1688;51.000;13.684;2022-10-31T03:29:22;19.50;93.40
3350;DHT22;1688;51.000;13.684;2022-10-31T03:31:51;19.50;93.60
3350;DHT22;1688;51.000;13.684;2022-10-31T03:34:20;19.50;93.70
3350;DHT22;1688;51.000;13.684;2022-10-31T03:36:49;19.50;93.70
3350;DHT22;1688;51.000;13.684;2022-10-31T03:39:17;19.50;93.80
3350;DHT22;1688;51.000;13.684;2022-10-31T03:41:48;19.50;93.80
3350;DHT22;1688;51.000;13.684;2022-10-31T03:44:17;19.50;93.70
3350;DHT22;1688;51.000;13.684;2022-10-31T03:46:44;19.40;93.80
3350;DHT22;1688;51.000;13.684;2022-10-31T03:49:11;19.50;93.90
3350;DHT22;1688;51.000;13.684;2022-10-31T03:51:47;19.40;93.90
3350;DHT22;1688;51.000;13.684;2022-10-31T03:57:15;19.40;94.10
3350;DHT22;1688;51.000;13.684;2022-10-31T03:59:44;19.30;94.10
3350;DHT22;1688;51.000;13.684;2022-10-31T04:02:14;19.30;94.10
3350;DHT22;1688;51.000;13.684;2022-10-31T04:04:41;19.20;94.10
3350;DHT22;1688;51.000;13.684;2022-10-31T04:07:09;19.20;94.20
3350;DHT22;1688;51.000;13.684;2022-10-31T04:09:37;19.20;94.20
3350;DHT22;1688;51.000;13.684;2022-10-31T04:12:06;19.20;94.30
3350;DHT22;1688;51.000;13.684;2022-10-31T04:14:37;19.20;94.40
3350;DHT22;1688;51.000;13.684;2022-10-31T04:17:07;19.20;94.50
3350;DHT22;1688;51.000;13.684;2022-10-31T04:19:34;19.10;94.60
3350;DHT22;1688;51.000;13.684;2022-10-31T04:22:00;19.10;94.60
3350;DHT22;1688;51.000;13.684;2022-10-31T04:24:25;19.10;94.80
3350;DHT22;1688;51.000;13.684;2022-10-31T04:26:51;19.10;94.80
3350;DHT22;1688;51.000;13.684;2022-10-31T04:29:17;19.00;94.80
3350;DHT22;1688;51.000;13.684;2022-10-31T04:31:43;19.00;94.90
3350;DHT22;1688;51.000;13.684;2022-10-31T04:34:08;19.10;95.00
3350;DHT22;1688;51.000;13.684;2022-10-31T04:36:34;19.00;95.00
3350;DHT22;1688;51.000;13.684;2022-10-31T04:39:00;19.10;95.10
3350;DHT22;1688;51.000;13.684;2022-10-31T04:41:25;19.00;95.10
3350;DHT22;1688;51.000;13.684;2022-10-31T04:43:51;19.00;95.20
3350;DHT22;1688;51.000;13.684;2022-10-31T04:46:18;19.00;95.20
3350;DHT22;1688;51.000;13.684;2022-10-31T04:48:44;18.90;95.20
3350;DHT22;1688;51.000;13.684;2022-10-31T04:51:10;18.90;95.20
3350;DHT22;1688;51.000;13.684;2022-10-31T04:53:36;18.90;95.30
3350;DHT22;1688;51.000;13.684;2022-10-31T04:56:02;18.80;95.30
3350;DHT22;1688;51.000;13.684;2022-10-31T04:58:28;18.80;95.50
3350;DHT22;1688;51.000;13.684;2022-10-31T05:00:55;18.70;95.60
3350;DHT22;1688;51.000;13.684;2022-10-31T05:03:21;18.70;95.70
3350;DHT22;1688;51.000;13.684;2022-10-31T05:05:47;18.60;95.80
3350;DHT22;1688;51.000;13.684;2022-10-31T05:08:14;18.50;95.90
3350;DHT22;1688;51.000;13.684;2022-10-31T05:10:40;18.50;95.90
3350;DHT22;1688;51.000;13.684;2022-10-31T05:13:06;18.40;96.20
3350;DHT22;1688;51.000;13.684;2022-10-31T05:15:32;18.40;96.20
3350;DHT22;1688;51.000;13.684;2022-10-31T05:17:58;18.20;96.20
3350;DHT22;1688;51.000;13.684;2022-10-31T05:20:26;18.20;96.50
3350;DHT22;1688;51.000;13.684;2022-10-31T05:22:53;18.10;96.60
3350;DHT22;1688;51.000;13.684;2022-10-31T05:25:21;18.10;96.80
3350;DHT22;1688;51.000;13.684;2022-10-31T05:27:49;18.00;96.90
3350;DHT22;1688;51.000;13.684;2022-10-31T05:30:18;18.00;97.20
3350;DHT22;1688;51.000;13.684;2022-10-31T05:32:46;18.00;97.20
3350;DHT22;1688;51.000;13.684;2022-10-31T05:35:19;17.90;97.30
3350;DHT22;1688;51.000;13.684;2022-10-31T05:37:45;17.90;97.40
3350;DHT22;1688;51.000;13.684;2022-10-31T05:40:13;17.90;97.30
3350;DHT22;1688;51.000;13.684;2022-10-31T05:42:41;17.90;97.40
3350;DHT22;1688;51.000;13.684;2022-10-31T05:45:08;17.80;97.50
3350;DHT22;1688;51.000;13.684;2022-10-31T05:47:34;17.80;97.50
3350;DHT22;1688;51.000;13.684;2022-10-31T05:50:00;17.80;97.80
3350;DHT22;1688;51.000;13.684;2022-10-31T05:52:26;17.70;97.90
3350;DHT22;1688;51.000;13.684;2022-10-31T05:54:52;17.60;98.00
3350;DHT22;1688;51.000;13.684;2022-10-31T05:57:18;17.60;98.20
3350;DHT22;1688;51.000;13.684;2022-10-31T05:59:43;17.60;98.30
3350;DHT22;1688;51.000;13.684;2022-10-31T06:02:09;17.50;98.60
3350;DHT22;1688;51.000;13.684;2022-10-31T06:04:35;17.50;98.60
3350;DHT22;1688;51.000;13.684;2022-10-31T06:07:01;17.40;98.70
3350;DHT22;1688;51.000;13.684;2022-10-31T06:09:27;17.40;99.00
3350;DHT22;1688;51.000;13.684;2022-10-31T06:11:52;17.30;99.10
3350;DHT22;1688;51.000;13.684;2022-10-31T06:14:18;17.30;99.20
3350;DHT22;1688;51.000;13.684;2022-10-31T06:16:44;17.20;99.30
3350;DHT22;1688;51.000;13.684;2022-10-31T06:19:09;17.10;99.40
3350;DHT22;1688;51.000;13.684;2022-10-31T06:21:35;17.10;99.60
3350;DHT22;1688;51.000;13.684;2022-10-31T06:24:01;17.10;99.70
3350;DHT22;1688;51.000;13.684;2022-10-31T06:26:28;17.10;99.90
3350;DHT22;1688;51.000;13.684;2022-10-31T06:28:54;17.10;99.90
3350;DHT22;1688;51.000;13.684;2022-10-31T06:31:19;17.10;99.90
3350;DHT22;1688;51.000;13.684;2022-10-31T06:33:45;17.10;99.90
3350;DHT22;1688;51.000;13.684;2022-10-31T06:36:11;17.20;99.90
3350;DHT22;1688;51.000;13.684;2022-10-31T06:38:37;17.30;99.90
3350;DHT22;1688;51.000;13.684;2022-10-31T06:41:06;17.50;99.90
3350;DHT22;1688;51.000;13.684;2022-10-31T06:43:32;17.70;99.90
3350;DHT22;1688;51.000;13.684;2022-10-31T06:46:02;17.80;99.80
3350;DHT22;1688;51.000;13.684;2022-10-31T06:48:28;18.10;99.60
3350;DHT22;1688;51.000;13.684;2022-10-31T06:51:00;18.30;99.60
3350;DHT22;1688;51.000;13.684;2022-10-31T06:53:26;18.30;99.40
3350;DHT22;1688;51.000;13.684;2022-10-31T06:55:52;18.30;99.50
3350;DHT22;1688;51.000;13.684;2022-10-31T06:58:18;18.30;99.40
3350;DHT22;1688;51.000;13.684;2022-10-31T07:00:44;18.30;99.50
3350;DHT22;1688;51.000;13.684;2022-10-31T07:03:11;18.40;99.50
3350;DHT22;1688;51.000;13.684;2022-10-31T07:05:39;18.40;99.40
3350;DHT22;1688;51.000;13.684;2022-10-31T07:08:07;18.40;99.50
3350;DHT22;1688;51.000;13.684;2022-10-31T07:10:35;18.50;99.50
3350;DHT22;1688;51.000;13.684;2022-10-31T07:13:03;18.50;99.80
3350;DHT22;1688;51.000;13.684;2022-10-31T07:15:32;18.70;99.70
3350;DHT22;1688;51.000;13.684;2022-10-31T07:18:09;18.70;99.60
3350;DHT22;1688;51.000;13.684;2022-10-31T07:20:36;18.80;99.40
3350;DHT22;1688;51.000;13.684;2022-10-31T07:23:02;18.80;99.20
3350;DHT22;1688;51.000;13.684;2022-10-31T07:25:28;18.80;99.30
3350;DHT22;1688;51.000;13.684;2022-10-31T07:27:55;19.00;99.30
3350;DHT22;1688;51.000;13.684;2022-10-31T07:30:21;19.10;99.20
3350;DHT22;1688;51.000;13.684;2022-10-31T07:32:49;19.10;99.10
3350;DHT22;1688;51.000;13.684;2022-10-31T07:35:18;19.30;99.10
3350;DHT22;1688;51.000;13.684;2022-10-31T07:37:44;19.50;98.90
3350;DHT22;1688;51.000;13.684;2022-10-31T07:40:10;19.60;98.90
3350;DHT22;1688;51.000;13.684;2022-10-31T07:42:41;19.90;98.90
3350;DHT22;1688;51.000;13.684;2022-10-31T07:45:10;20.10;98.40
3350;DHT22;1688;51.000;13.684;2022-10-31T07:47:48;20.60;97.70
3350;DHT22;1688;51.000;13.684;2022-10-31T07:50:22;20.80;97.40
3350;DHT22;1688;51.000;13.684;2022-10-31T07:52:48;20.90;96.80
3350;DHT22;1688;51.000;13.684;2022-10-31T07:55:14;21.10;96.60
3350;DHT22;1688;51.000;13.684;2022-10-31T07:57:40;21.20;96.20
3350;DHT22;1688;51.000;13.684;2022-10-31T08:00:10;21.20;96.10
3350;DHT22;1688;51.000;13.684;2022-10-31T08:02:36;21.20;96.20
3350;DHT22;1688;51.000;13.684;2022-10-31T08:05:02;21.20;96.00
3350;DHT22;1688;51.000;13.684;2022-10-31T08:07:28;21.30;96.20
3350;DHT22;1688;51.000;13.684;2022-10-31T08:09:55;21.30;96.20
3350;DHT22;1688;51.000;13.684;2022-10-31T08:12:21;21.40;95.60
3350;DHT22;1688;51.000;13.684;2022-10-31T08:14:49;21.40;95.60
3350;DHT22;1688;51.000;13.684;2022-10-31T08:17:15;21.50;95.60
3350;DHT22;1688;51.000;13.684;2022-10-31T08:19:41;21.60;95.60
3350;DHT22;1688;51.000;13.684;2022-10-31T08:22:07;21.70;95.20
3350;DHT22;1688;51.000;13.684;2022-10-31T08:24:32;21.80;95.10
3350;DHT22;1688;51.000;13.684;2022-10-31T08:26:58;21.90;95.20
3350;DHT22;1688;51.000;13.684;2022-10-31T08:29:24;22.00;95.10
3350;DHT22;1688;51.000;13.684;2022-10-31T08:31:50;22.20;94.70
3350;DHT22;1688;51.000;13.684;2022-10-31T08:34:15;22.30;94.80
3350;DHT22;1688;51.000;13.684;2022-10-31T08:36:41;22.40;94.60
3350;DHT22;1688;51.000;13.684;2022-10-31T08:39:10;22.60;94.50
3350;DHT22;1688;51.000;13.684;2022-10-31T08:41:36;22.80;94.00
3350;DHT22;1688;51.000;13.684;2022-10-31T08:44:01;23.00;94.00
3350;DHT22;1688;51.000;13.684;2022-10-31T08:46:27;23.10;93.60
3350;DHT22;1688;51.000;13.684;2022-10-31T08:48:53;23.20;93.90
3350;DHT22;1688;51.000;13.684;2022-10-31T08:51:19;23.20;92.80
3350;DHT22;1688;51.000;13.684;2022-10-31T08:53:44;23.10;92.60
3350;DHT22;1688;51.000;13.684;2022-10-31T08:56:11;23.20;92.80
3350;DHT22;1688;51.000;13.684;2022-10-31T08:58:37;23.40;93.10
3350;DHT22;1688;51.000;13.684;2022-10-31T09:01:03;23.40;92.80
3350;DHT22;1688;51.000;13.684;2022-10-31T09:03:30;23.40;92.30
3350;DHT22;1688;51.000;13.684;2022-10-31T09:05:58;23.30;92.70
3350;DHT22;1688;51.000;13.684;2022-10-31T09:08:24;23.10;92.30
3350;DHT22;1688;51.000;13.684;2022-10-31T09:10:50;22.90;92.40
3350;DHT22;1688;51.000;13.684;2022-10-31T09:13:19;22.60;93.40
3350;DHT22;1688;51.000;13.684;2022-10-31T09:15:47;22.60;93.40
3350;DHT22;1688;51.000;13.684;2022-10-31T09:18:20;22.70;93.80
3350;DHT22;1688;51.000;13.684;2022-10-31T09:20:47;22.80;93.40
3350;DHT22;1688;51.000;13.684;2022-10-31T09:23:21;22.80;93.30
3350;DHT22;1688;51.000;13.684;2022-10-31T09:25:49;22.90;93.60
3350;DHT22;1688;51.000;13.684;2022-10-31T09:28:18;23.00;94.60
3350;DHT22;1688;51.000;13.684;2022-10-31T09:30:47;23.20;94.70
3350;DHT22;1688;51.000;13.684;2022-10-31T09:33:13;23.30;93.60
3350;DHT22;1688;51.000;13.684;2022-10-31T09:35:40;23.30;93.50
3350;DHT22;1688;51.000;13.684;2022-10-31T09:38:09;23.50;93.20
3350;DHT22;1688;51.000;13.684;2022-10-31T09:40:41;23.60;93.60
3350;DHT22;1688;51.000;13.684;2022-10-31T09:43:44;24.00;92.50
3350;DHT22;1688;51.000;13.684;2022-10-31T09:49:47;24.30;92.20
3350;DHT22;1688;51.000;13.684;2022-10-31T09:52:24;24.30;91.80
3350;DHT22;1688;51.000;13.684;2022-10-31T09:54:53;24.30;92.40
3350;DHT22;1688;51.000;13.684;2022-10-31T09:57:27;24.40;91.90
3350;DHT22;1688;51.000;13.684;2022-10-31T09:59:54;24.10;91.10
3350;DHT22;1688;51.000;13.684;2022-10-31T10:02:39;23.90;91.40
3350;DHT22;1688;51.000;13.684;2022-10-31T10:05:13;23.20;92.40
3350;DHT22;1688;51.000;13.684;2022-10-31T10:18:29;22.90;94.20
3350;DHT22;1688;51.000;13.684;2022-10-31T10:21:14;23.20;93.50
3350;DHT22;1688;51.000;13.684;2022-10-31T10:26:21;23.30;93.00
3350;DHT22;1688;51.000;13.684;2022-10-31T10:28:54;22.80;93.60
3350;DHT22;1688;51.000;13.684;2022-10-31T10:31:27;22.20;94.40
3350;DHT22;1688;51.000;13.684;2022-10-31T10:34:16;21.80;96.10
3350;DHT22;1688;51.000;13.684;2022-10-31T10:37:04;21.50;97.30
3350;DHT22;1688;51.000;13.684;2022-10-31T10:40:05;21.30;97.60
3350;DHT22;1688;51.000;13.684;2022-10-31T10:42:33;21.10;98.40
3350;DHT22;1688;51.000;13.684;2022-10-31T10:45:19;20.80;98.30
3350;DHT22;1688;51.000;13.684;2022-10-31T10:48:16;20.60;98.30
3350;DHT22;1688;51.000;13.684;2022-10-31T10:50:50;20.50;98.40
3350;DHT22;1688;51.000;13.684;2022-10-31T10:59:01;20.10;99.50
3350;DHT22;1688;51.000;13.684;2022-10-31T11:01:27;20.10;99.80
3350;DHT22;1688;51.000;13.684;2022-10-31T11:03:53;20.10;99.90
3350;DHT22;1688;51.000;13.684;2022-10-31T11:06:23;20.10;99.80
3350;DHT22;1688;51.000;13.684;2022-10-31T11:08:52;20.00;99.70
3350;DHT22;1688;51.000;13.684;2022-10-31T11:11:38;19.90;99.90
3350;DHT22;1688;51.000;13.684;2022-10-31T11:14:15;20.00;99.90
3350;DHT22;1688;51.000;13.684;2022-10-31T11:16:45;19.80;99.90
3350;DHT22;1688;51.000;13.684;2022-10-31T11:19:20;19.80;99.90
3350;DHT22;1688;51.000;13.684;2022-10-31T11:21:47;20.00;99.90
3350;DHT22;1688;51.000;13.684;2022-10-31T11:24:16;20.00;99.90
3350;DHT22;1688;51.000;13.684;2022-10-31T11:26:44;20.00;99.80
3350;DHT22;1688;51.000;13.684;2022-10-31T11:29:15;19.90;99.90
3350;DHT22;1688;51.000;13.684;2022-10-31T11:31:43;20.00;99.90
3350;DHT22;1688;51.000;13.684;2022-10-31T11:34:32;20.00;99.90
3350;DHT22;1688;51.000;13.684;2022-10-31T11:37:20;19.90;99.90
3350;DHT22;1688;51.000;13.684;2022-10-31T11:39:53;19.90;99.90
3350;DHT22;1688;51.000;13.684;2022-10-31T11:42:24;20.10;99.90
3350;DHT22;1688;51.000;13.684;2022-10-31T11:44:52;20.30;99.80
3350;DHT22;1688;51.000;13.684;2022-10-31T11:47:28;20.30;99.80
3350;DHT22;1688;51.000;13.684;2022-10-31T11:49:56;20.30;99.90
3350;DHT22;1688;51.000;13.684;2022-10-31T11:52:28;20.20;99.60
3350;DHT22;1688;51.000;13.684;2022-10-31T11:55:13;20.10;99.90
3350;DHT22;1688;51.000;13.684;2022-10-31T11:57:46;19.90;99.90
3350;DHT22;1688;51.000;13.684;2022-10-31T12:00:30;20.10;99.90
3350;DHT22;1688;51.000;13.684;2022-10-31T12:05:42;20.60;99.90
3350;DHT22;1688;51.000;13.684;2022-10-31T12:08:11;20.80;99.80
3350;DHT22;1688;51.000;13.684;2022-10-31T12:14:12;20.40;99.90
3350;DHT22;1688;51.000;13.684;2022-10-31T12:19:50;20.10;99.90
3350;DHT22;1688;51.000;13.684;2022-10-31T12:22:27;20.00;99.90
3350;DHT22;1688;51.000;13.684;2022-10-31T12:28:50;20.20;99.90
3350;DHT22;1688;51.000;13.684;2022-10-31T12:31:10;20.00;99.90
3350;DHT22;1688;51.000;13.684;2022-10-31T12:34:07;20.00;99.90
3350;DHT22;1688;51.000;13.684;2022-10-31T12:39:25;20.20;99.90
3350;DHT22;1688;51.000;13.684;2022-10-31T12:42:13;20.20;99.90
3350;DHT22;1688;51.000;13.684;2022-10-31T12:44:56;20.50;99.90
3350;DHT22;1688;51.000;13.684;2022-10-31T12:47:38;20.60;99.90
3350;DHT22;1688;51.000;13.684;2022-10-31T12:50:32;20.80;99.90
3350;DHT22;1688;51.000;13.684;2022-10-31T12:53:26;20.80;99.90
3350;DHT22;1688;51.000;13.684;2022-10-31T12:58:46;20.90;99.70
3350;DHT22;1688;51.000;13.684;2022-10-31T13:01:17;21.00;99.90
3350;DHT22;1688;51.000;13.684;2022-10-31T13:06:48;20.80;99.60
3350;DHT22;1688;51.000;13.684;2022-10-31T13:09:19;20.60;99.90
3350;DHT22;1688;51.000;13.684;2022-10-31T13:11:53;20.50;99.90
3350;DHT22;1688;51.000;13.684;2022-10-31T13:14:26;20.30;99.90
3350;DHT22;1688;51.000;13.684;2022-10-31T13:16:54;20.30;99.90
3350;DHT22;1688;51.000;13.684;2022-10-31T13:19:34;20.40;99.90
3350;DHT22;1688;51.000;13.684;2022-10-31T13:22:12;20.30;99.90
3350;DHT22;1688;51.000;13.684;2022-10-31T13:24:43;20.20;99.90
3350;DHT22;1688;51.000;13.684;2022-10-31T13:27:23;20.10;99.90
3350;DHT22;1688;51.000;13.684;2022-10-31T13:30:00;20.10;99.90
3350;DHT22;1688;51.000;13.684;2022-10-31T13:32:29;20.00;99.90
3350;DHT22;1688;51.000;13.684;2022-10-31T13:35:01;19.90;99.90
3350;DHT22;1688;51.000;13.684;2022-10-31T13:37:44;19.70;99.90
3350;DHT22;1688;51.000;13.684;2022-10-31T13:45:34;19.50;99.90
3350;DHT22;1688;51.000;13.684;2022-10-31T13:50:32;19.30;99.90
3350;DHT22;1688;51.000;13.684;2022-10-31T13:53:13;19.40;99.90
3350;DHT22;1688;51.000;13.684;2022-10-31T13:55:48;19.40;99.90
3350;DHT22;1688;51.000;13.684;2022-10-31T14:00:46;19.60;99.90
3350;DHT22;1688;51.000;13.684;2022-10-31T14:03:24;19.60;99.90
3350;DHT22;1688;51.000;13.684;2022-10-31T14:05:55;19.50;99.90
3350;DHT22;1688;51.000;13.684;2022-10-31T14:08:23;19.40;99.90
3350;DHT22;1688;51.000;13.684;2022-10-31T14:10:51;19.50;99.90
3350;DHT22;1688;51.000;13.684;2022-10-31T14:16:23;19.70;99.90
3350;DHT22;1688;51.000;13.684;2022-10-31T14:18:57;19.60;99.90
3350;DHT22;1688;51.000;13.684;2022-10-31T14:23:53;19.70;99.90
3350;DHT22;1688;51.000;13.684;2022-10-31T14:28:53;20.00;99.90
3350;DHT22;1688;51.000;13.684;2022-10-31T14:34:23;20.10;99.90
3350;DHT22;1688;51.000;13.684;2022-10-31T14:47:05;20.30;99.90
3350;DHT22;1688;51.000;13.684;2022-10-31T14:52:25;20.20;99.90
3350;DHT22;1688;51.000;13.684;2022-10-31T14:54:56;20.20;99.90
3350;DHT22;1688;51.000;13.684;2022-10-31T14:57:32;20.10;99.90
3350;DHT22;1688;51.000;13.684;2022-10-31T15:00:03;20.10;99.90
3350;DHT22;1688;51.000;13.684;2022-10-31T15:04:58;20.10;99.90
3350;DHT22;1688;51.000;13.684;2022-10-31T15:07:26;20.00;99.90
3350;DHT22;1688;51.000;13.684;2022-10-31T15:09:57;19.90;99.90
3350;DHT22;1688;51.000;13.684;2022-10-31T15:12:27;19.90;99.90
3350;DHT22;1688;51.000;13.684;2022-10-31T15:14:53;19.90;99.90
3350;DHT22;1688;51.000;13.684;2022-10-31T15:17:20;19.80;99.90
3350;DHT22;1688;51.000;13.684;2022-10-31T15:19:47;19.70;99.90
3350;DHT22;1688;51.000;13.684;2022-10-31T15:22:18;19.70;99.90
3350;DHT22;1688;51.000;13.684;2022-10-31T15:24:45;19.60;99.90
3350;DHT22;1688;51.000;13.684;2022-10-31T15:27:15;19.50;99.90
3350;DHT22;1688;51.000;13.684;2022-10-31T15:29:55;19.50;99.90
3350;DHT22;1688;51.000;13.684;2022-10-31T15:32:26;19.40;99.90
3350;DHT22;1688;51.000;13.684;2022-10-31T15:34:53;19.30;99.90
3350;DHT22;1688;51.000;13.684;2022-10-31T15:37:22;19.20;99.90
3350;DHT22;1688;51.000;13.684;2022-10-31T15:39:50;19.10;99.90
3350;DHT22;1688;51.000;13.684;2022-10-31T15:42:27;19.00;99.90
3350;DHT22;1688;51.000;13.684;2022-10-31T15:47:36;18.90;99.90
3350;DHT22;1688;51.000;13.684;2022-10-31T15:50:16;18.80;99.90
3350;DHT22;1688;51.000;13.684;2022-10-31T15:52:45;18.70;99.90
3350;DHT22;1688;51.000;13.684;2022-10-31T15:55:26;18.60;99.90
3350;DHT22;1688;51.000;13.684;2022-10-31T15:58:11;18.50;99.90
3350;DHT22;1688;51.000;13.684;2022-10-31T16:00:38;18.50;99.90
3350;DHT22;1688;51.000;13.684;2022-10-31T16:03:25;18.40;99.90
3350;DHT22;1688;51.000;13.684;2022-10-31T16:05:54;18.30;99.90
3350;DHT22;1688;51.000;13.684;2022-10-31T16:10:51;18.20;99.90
3350;DHT22;1688;51.000;13.684;2022-10-31T16:13:17;18.10;99.90
3350;DHT22;1688;51.000;13.684;2022-10-31T16:15:52;18.10;99.90
3350;DHT22;1688;51.000;13.684;2022-10-31T16:18:19;18.00;99.90
3350;DHT22;1688;51.000;13.684;2022-10-31T16:20:53;17.90;99.90
3350;DHT22;1688;51.000;13.684;2022-10-31T16:23:22;17.90;99.90
3350;DHT22;1688;51.000;13.684;2022-10-31T16:25:51;17.90;99.90
3350;DHT22;1688;51.000;13.684;2022-10-31T16:28:25;17.80;99.90
3350;DHT22;1688;51.000;13.684;2022-10-31T16:30:53;17.80;99.90
3350;DHT22;1688;51.000;13.684;2022-10-31T16:33:33;17.70;99.90
3350;DHT22;1688;51.000;13.684;2022-10-31T16:38:57;17.70;99.90
3350;DHT22;1688;51.000;13.684;2022-10-31T16:41:23;17.60;99.90
3350;DHT22;1688;51.000;13.684;2022-10-31T16:43:50;17.60;99.90
3350;DHT22;1688;51.000;13.684;2022-10-31T16:46:24;17.60;99.90
3350;DHT22;1688;51.000;13.684;2022-10-31T16:48:50;17.60;99.90
3350;DHT22;1688;51.000;13.684;2022-10-31T16:51:16;17.50;99.90
3350;DHT22;1688;51.000;13.684;2022-10-31T16:53:42;17.60;99.90
3350;DHT22;1688;51.000;13.684;2022-10-31T16:56:15;17.50;99.90
3350;DHT22;1688;51.000;13.684;2022-10-31T16:58:42;17.50;99.90
3350;DHT22;1688;51.000;13.684;2022-10-31T17:01:08;17.50;99.90
3350;DHT22;1688;51.000;13.684;2022-10-31T17:03:35;17.50;99.90
3350;DHT22;1688;51.000;13.684;2022-10-31T17:06:01;17.50;99.90
3350;DHT22;1688;51.000;13.684;2022-10-31T17:08:27;17.40;99.90
3350;DHT22;1688;51.000;13.684;2022-10-31T17:10:57;17.40;99.90
3350;DHT22;1688;51.000;13.684;2022-10-31T17:13:27;17.40;99.90
3350;DHT22;1688;51.000;13.684;2022-10-31T17:15:56;17.40;99.90
3350;DHT22;1688;51.000;13.684;2022-10-31T17:18:22;17.30;99.90
3350;DHT22;1688;51.000;13.684;2022-10-31T17:20:49;17.30;99.90
3350;DHT22;1688;51.000;13.684;2022-10-31T17:23:16;17.30;99.90
3350;DHT22;1688;51.000;13.684;2022-10-31T17:25:43;17.40;99.90
3350;DHT22;1688;51.000;13.684;2022-10-31T17:28:13;17.40;99.90
3350;DHT22;1688;51.000;13.684;2022-10-31T17:30:41;17.40;99.90
3350;DHT22;1688;51.000;13.684;2022-10-31T17:33:12;17.40;99.90
3350;DHT22;1688;51.000;13.684;2022-10-31T17:35:38;17.40;99.90
3350;DHT22;1688;51.000;13.684;2022-10-31T17:38:04;17.50;99.90
3350;DHT22;1688;51.000;13.684;2022-10-31T17:40:30;17.50;99.90
3350;DHT22;1688;51.000;13.684;2022-10-31T17:42:58;17.50;99.90
3350;DHT22;1688;51.000;13.684;2022-10-31T17:45:25;17.50;99.90
3350;DHT22;1688;51.000;13.684;2022-10-31T17:47:52;17.50;99.90
3350;DHT22;1688;51.000;13.684;2022-10-31T17:50:23;17.50;99.90
3350;DHT22;1688;51.000;13.684;2022-10-31T17:52:50;17.50;99.90
3350;DHT22;1688;51.000;13.684;2022-10-31T17:55:16;17.40;99.90